createdAt,value
2017-12-31T00:01:56.977Z,99587.84
2017-12-31T00:04:23.784Z,99590.53
2017-12-31T00:06:51.550Z,99591.97
2017-12-31T00:09:19.767Z,99596.51
2017-12-31T00:11:49.678Z,99593.53
2017-12-31T00:14:16.474Z,99595.47
2017-12-31T00:16:43.636Z,99594.88
2017-12-31T00:19:12.122Z,99597.22
2017-12-31T00:21:39.843Z,99599.87
2017-12-31T00:24:07.544Z,99597.88
2017-12-31T00:26:34.467Z,99605.30
2017-12-31T00:29:02.580Z,99602.43
2017-12-31T00:31:29.659Z,99600.61
2017-12-31T00:33:56.519Z,99603.25
2017-12-31T00:36:23.705Z,99603.80
2017-12-31T00:38:50.580Z,99603.91
2017-12-31T00:41:17.527Z,99608.77
2017-12-31T00:43:45.147Z,99603.68
2017-12-31T00:46:15.087Z,99602.13
2017-12-31T00:48:47.482Z,99594.43
2017-12-31T00:51:20.086Z,99596.65
2017-12-31T00:53:47.341Z,99595.36
2017-12-31T00:56:15.083Z,99590.39
2017-12-31T00:58:42.000Z,99583.59
2017-12-31T01:01:09.629Z,99586.66
2017-12-31T01:03:36.625Z,99596.22
2017-12-31T01:06:04.511Z,99598.36
2017-12-31T01:08:34.342Z,99608.30
2017-12-31T01:11:02.441Z,99600.92
2017-12-31T01:13:30.174Z,99590.23
2017-12-31T01:15:58.022Z,99579.04
2017-12-31T01:18:25.043Z,99587.63
2017-12-31T01:20:52.740Z,99586.70
2017-12-31T01:23:20.792Z,99589.65
2017-12-31T01:25:53.025Z,99582.53
2017-12-31T01:28:25.477Z,99566.72
2017-12-31T01:30:52.438Z,99573.56
2017-12-31T01:33:22.266Z,99571.38
2017-12-31T01:35:54.492Z,99578.27
2017-12-31T01:38:27.589Z,99579.47
2017-12-31T01:40:54.800Z,99582.96
2017-12-31T01:43:22.150Z,99569.83
2017-12-31T01:45:50.623Z,99574.45
2017-12-31T01:48:18.378Z,99579.58
2017-12-31T01:50:47.006Z,99575.12
2017-12-31T01:53:14.390Z,99572.01
2017-12-31T01:55:43.744Z,99578.57
2017-12-31T01:58:14.560Z,99574.57
2017-12-31T02:00:42.266Z,99576.15
2017-12-31T02:03:14.816Z,99565.67
2017-12-31T02:05:42.772Z,99577.91
2017-12-31T02:08:12.752Z,99567.11
2017-12-31T02:10:39.672Z,99567.58
2017-12-31T02:13:07.415Z,99567.42
2017-12-31T02:15:34.181Z,99568.90
2017-12-31T02:18:01.319Z,99567.73
2017-12-31T02:20:28.199Z,99561.02
2017-12-31T02:22:56.125Z,99561.09
2017-12-31T02:25:23.445Z,99553.16
2017-12-31T02:27:50.694Z,99546.25
2017-12-31T02:30:17.909Z,99541.70
2017-12-31T02:32:48.818Z,99545.08
2017-12-31T02:35:15.850Z,99552.04
2017-12-31T02:37:48.398Z,99564.00
2017-12-31T02:40:16.069Z,99547.57
2017-12-31T02:42:49.305Z,99529.39
2017-12-31T02:45:17.702Z,99527.98
2017-12-31T02:47:45.935Z,99531.41
2017-12-31T02:50:18.824Z,99527.48
2017-12-31T02:52:46.093Z,99519.21
2017-12-31T02:55:15.559Z,99507.52
2017-12-31T02:57:44.181Z,99508.61
2017-12-31T03:00:12.289Z,99501.19
2017-12-31T03:02:39.727Z,99500.99
2017-12-31T03:05:06.623Z,99501.46
2017-12-31T03:07:33.618Z,99504.53
2017-12-31T03:10:04.297Z,99502.16
2017-12-31T03:12:31.317Z,99504.58
2017-12-31T03:15:03.498Z,99501.53
2017-12-31T03:17:31.379Z,99497.08
2017-12-31T03:19:59.638Z,99499.98
2017-12-31T03:22:26.553Z,99496.22
2017-12-31T03:24:53.908Z,99489.61
2017-12-31T03:27:21.169Z,99482.20
2017-12-31T03:29:48.273Z,99475.59
2017-12-31T03:32:15.414Z,99469.73
2017-12-31T03:34:47.315Z,99469.23
2017-12-31T03:37:15.913Z,99468.02
2017-12-31T03:39:46.011Z,99465.42
2017-12-31T03:42:13.651Z,99462.47
2017-12-31T03:44:40.584Z,99451.95
2017-12-31T03:47:07.431Z,99453.34
2017-12-31T03:49:35.417Z,99451.02
2017-12-31T03:52:02.291Z,99448.22
2017-12-31T03:54:29.289Z,99452.30
2017-12-31T03:56:56.446Z,99455.52
2017-12-31T03:59:23.840Z,99448.96
2017-12-31T04:01:51.872Z,99450.94
2017-12-31T04:04:19.680Z,99447.05
2017-12-31T04:06:46.994Z,99439.56
2017-12-31T04:09:14.182Z,99441.78
2017-12-31T04:11:42.175Z,99439.98
2017-12-31T04:14:10.476Z,99439.98
2017-12-31T04:16:37.375Z,99440.38
2017-12-31T04:19:04.310Z,99437.73
2017-12-31T04:21:36.491Z,99437.06
2017-12-31T04:24:03.533Z,99438.34
2017-12-31T04:26:31.528Z,99429.69
2017-12-31T04:29:00.034Z,99427.55
2017-12-31T04:31:27.047Z,99424.63
2017-12-31T04:33:54.420Z,99436.04
2017-12-31T04:36:27.929Z,99422.31
2017-12-31T04:38:56.057Z,99422.55
2017-12-31T04:41:29.256Z,99414.68
2017-12-31T04:43:56.407Z,99417.17
2017-12-31T04:46:23.613Z,99422.35
2017-12-31T04:48:56.258Z,99417.94
2017-12-31T04:51:23.151Z,99410.64
2017-12-31T04:53:49.956Z,99409.91
2017-12-31T04:56:22.188Z,99408.75
2017-12-31T04:58:50.154Z,99412.72
2017-12-31T05:01:17.014Z,99409.54
2017-12-31T05:03:44.415Z,99423.50
2017-12-31T05:06:11.715Z,99418.59
2017-12-31T05:08:38.678Z,99429.02
2017-12-31T05:11:06.475Z,99414.30
2017-12-31T05:13:38.947Z,99431.64
2017-12-31T05:16:06.863Z,99431.27
2017-12-31T05:18:33.714Z,99428.48
2017-12-31T05:21:00.914Z,99429.48
2017-12-31T05:23:33.239Z,99438.16
2017-12-31T05:26:01.862Z,99430.70
2017-12-31T05:28:28.745Z,99441.55
2017-12-31T05:30:56.624Z,99437.52
2017-12-31T05:33:24.216Z,99436.50
2017-12-31T05:35:51.921Z,99434.64
2017-12-31T05:38:26.792Z,99436.05
2017-12-31T05:40:54.867Z,99421.88
2017-12-31T05:43:27.768Z,99446.97
2017-12-31T05:45:56.190Z,99443.83
2017-12-31T05:48:24.973Z,99440.73
2017-12-31T05:50:52.250Z,99432.79
2017-12-31T05:53:20.146Z,99433.23
2017-12-31T05:55:49.669Z,99434.86
2017-12-31T05:58:16.623Z,99435.09
2017-12-31T06:00:48.708Z,99425.70
2017-12-31T06:03:19.603Z,99436.61
2017-12-31T06:05:52.371Z,99427.94
2017-12-31T06:08:19.527Z,99427.95
2017-12-31T06:10:46.709Z,99419.88
2017-12-31T06:13:14.478Z,99406.52
2017-12-31T06:15:43.021Z,99407.81
2017-12-31T06:18:10.001Z,99405.77
2017-12-31T06:20:37.230Z,99404.00
2017-12-31T06:23:04.844Z,99408.75
2017-12-31T06:25:32.174Z,99406.91
2017-12-31T06:28:00.082Z,99422.10
2017-12-31T06:30:26.884Z,99412.12
2017-12-31T06:32:54.668Z,99407.09
2017-12-31T06:35:21.797Z,99411.61
2017-12-31T06:37:54.312Z,99415.44
2017-12-31T06:40:21.169Z,99412.61
2017-12-31T06:42:50.977Z,99423.77
2017-12-31T06:45:18.902Z,99409.48
2017-12-31T06:47:46.714Z,99410.69
2017-12-31T06:50:20.627Z,99428.60
2017-12-31T06:52:47.498Z,99425.55
2017-12-31T06:55:15.012Z,99420.50
2017-12-31T06:57:42.002Z,99430.90
2017-12-31T07:00:14.024Z,99427.31
2017-12-31T07:02:47.031Z,99424.33
2017-12-31T07:05:14.919Z,99439.56
2017-12-31T07:07:41.754Z,99432.01
2017-12-31T07:10:09.365Z,99439.59
2017-12-31T07:12:43.211Z,99443.64
2017-12-31T07:15:15.833Z,99432.75
2017-12-31T07:17:43.322Z,99436.72
2017-12-31T07:20:15.696Z,99440.67
2017-12-31T07:22:42.513Z,99435.47
2017-12-31T07:25:09.349Z,99433.44
2017-12-31T07:27:42.284Z,99418.58
2017-12-31T07:30:09.550Z,99445.94
2017-12-31T07:32:36.523Z,99437.72
2017-12-31T07:35:03.545Z,99437.33
2017-12-31T07:37:30.431Z,99421.14
2017-12-31T07:39:57.461Z,99419.02
2017-12-31T07:42:24.232Z,99426.11
2017-12-31T07:44:51.449Z,99423.03
2017-12-31T07:47:18.215Z,99413.60
2017-12-31T07:49:44.976Z,99409.16
2017-12-31T07:52:14.848Z,99406.26
2017-12-31T07:54:41.777Z,99421.41
2017-12-31T07:57:08.650Z,99413.13
2017-12-31T07:59:35.654Z,99418.42
2017-12-31T08:02:07.747Z,99413.73
2017-12-31T08:04:34.659Z,99426.16
2017-12-31T08:07:01.851Z,99424.36
2017-12-31T08:09:28.943Z,99426.84
2017-12-31T08:11:55.708Z,99426.28
2017-12-31T08:14:23.382Z,99420.69
2017-12-31T08:16:53.587Z,99425.94
2017-12-31T08:19:26.529Z,99423.04
2017-12-31T08:21:53.541Z,99433.45
2017-12-31T08:24:24.209Z,99429.48
2017-12-31T08:26:52.214Z,99423.42
2017-12-31T08:29:19.884Z,99427.56
2017-12-31T08:31:46.808Z,99439.69
2017-12-31T08:34:18.900Z,99430.37
2017-12-31T08:36:46.415Z,99430.33
2017-12-31T08:39:14.296Z,99426.45
2017-12-31T08:41:47.374Z,99430.63
2017-12-31T08:44:15.600Z,99438.02
2017-12-31T08:46:43.281Z,99437.97
2017-12-31T08:49:10.891Z,99434.83
2017-12-31T08:51:37.837Z,99424.36
2017-12-31T08:54:06.336Z,99439.51
2017-12-31T08:56:33.606Z,99438.37
2017-12-31T08:59:00.949Z,99434.61
2017-12-31T09:01:27.796Z,99429.36
2017-12-31T09:03:54.906Z,99424.23
2017-12-31T09:06:26.787Z,99435.08
2017-12-31T09:08:57.090Z,99428.76
2017-12-31T09:11:23.956Z,99441.35
2017-12-31T09:13:51.770Z,99427.73
2017-12-31T09:16:18.938Z,99435.46
2017-12-31T09:18:50.937Z,99417.56
2017-12-31T09:21:17.787Z,99418.55
2017-12-31T09:23:50.070Z,99419.55
2017-12-31T09:26:22.996Z,99414.58
2017-12-31T09:28:49.799Z,99411.42
2017-12-31T09:31:16.955Z,99419.24
2017-12-31T09:33:46.890Z,99416.72
2017-12-31T09:36:14.597Z,99419.02
2017-12-31T09:38:43.627Z,99406.00
2017-12-31T09:41:11.343Z,99400.78
2017-12-31T09:43:38.378Z,99400.36
2017-12-31T09:46:05.246Z,99407.88
2017-12-31T09:48:38.633Z,99407.56
2017-12-31T09:51:05.577Z,99388.73
2017-12-31T09:53:32.956Z,99395.31
2017-12-31T09:56:00.122Z,99397.15
2017-12-31T09:58:32.966Z,99413.71
2017-12-31T10:01:00.385Z,99401.62
2017-12-31T10:03:27.239Z,99397.52
2017-12-31T10:05:53.991Z,99395.43
2017-12-31T10:08:20.822Z,99403.09
2017-12-31T10:10:48.417Z,99416.59
2017-12-31T10:13:15.176Z,99405.55
2017-12-31T10:15:42.098Z,99396.59
2017-12-31T10:18:10.372Z,99390.09
2017-12-31T10:20:37.296Z,99392.86
2017-12-31T10:23:04.342Z,99384.69
2017-12-31T10:25:33.840Z,99380.80
2017-12-31T10:28:04.502Z,99364.69
2017-12-31T10:30:32.263Z,99372.34
2017-12-31T10:33:00.100Z,99360.37
2017-12-31T10:35:35.800Z,99355.84
2017-12-31T10:38:02.634Z,99374.55
2017-12-31T10:40:38.262Z,99362.94
2017-12-31T10:43:05.975Z,99353.09
2017-12-31T10:45:38.371Z,99343.52
2017-12-31T10:48:12.279Z,99347.95
2017-12-31T10:50:39.148Z,99345.54
2017-12-31T10:53:08.365Z,99335.18
2017-12-31T10:55:36.247Z,99342.76
2017-12-31T10:58:03.200Z,99353.17
2017-12-31T11:00:36.363Z,99346.13
2017-12-31T11:03:04.257Z,99350.09
2017-12-31T11:05:32.391Z,99340.38
2017-12-31T11:07:59.200Z,99349.48
2017-12-31T11:10:26.317Z,99344.94
2017-12-31T11:12:54.835Z,99336.69
2017-12-31T11:15:22.065Z,99337.53
2017-12-31T11:17:48.965Z,99340.61
2017-12-31T11:20:15.776Z,99343.80
2017-12-31T11:22:43.006Z,99339.83
2017-12-31T11:25:10.573Z,99328.39
2017-12-31T11:27:44.954Z,99338.63
2017-12-31T11:30:13.984Z,99325.69
2017-12-31T11:32:43.406Z,99318.31
2017-12-31T11:35:17.985Z,99313.06
2017-12-31T11:37:46.998Z,99316.28
2017-12-31T11:40:20.597Z,99315.35
2017-12-31T11:42:48.575Z,99308.89
2017-12-31T11:45:15.607Z,99307.98
2017-12-31T11:47:57.870Z,99306.44
2017-12-31T11:50:24.905Z,99312.30
2017-12-31T11:52:51.672Z,99309.03
2017-12-31T11:55:18.611Z,99300.63
2017-12-31T11:57:45.803Z,99295.48
2017-12-31T12:00:13.968Z,99293.18
2017-12-31T12:02:44.386Z,99271.25
2017-12-31T12:05:11.530Z,99286.48
2017-12-31T12:07:39.590Z,99268.90
2017-12-31T12:10:07.555Z,99287.43
2017-12-31T12:15:13.359Z,99275.44
2017-12-31T12:17:40.511Z,99271.23
2017-12-31T12:20:08.448Z,99267.83
2017-12-31T12:22:36.243Z,99265.74
2017-12-31T12:25:03.125Z,99268.09
2017-12-31T12:27:35.210Z,99253.61
2017-12-31T12:30:02.816Z,99258.92
2017-12-31T12:32:30.347Z,99250.66
2017-12-31T12:34:57.385Z,99241.23
2017-12-31T12:37:27.660Z,99240.02
2017-12-31T12:39:55.817Z,99235.66
2017-12-31T12:42:26.667Z,99244.45
2017-12-31T12:44:58.972Z,99227.59
2017-12-31T12:47:26.984Z,99230.78
2017-12-31T12:49:54.356Z,99227.17
2017-12-31T12:52:21.297Z,99231.53
2017-12-31T12:54:48.413Z,99214.72
2017-12-31T12:57:18.870Z,99211.06
2017-12-31T12:59:51.711Z,99205.33
2017-12-31T13:02:20.027Z,99189.84
2017-12-31T13:04:49.788Z,99178.61
2017-12-31T13:07:18.861Z,99181.52
2017-12-31T13:09:48.435Z,99176.80
2017-12-31T13:12:16.717Z,99177.42
2017-12-31T13:14:44.208Z,99171.21
2017-12-31T13:17:11.563Z,99172.59
2017-12-31T13:19:39.778Z,99161.25
2017-12-31T13:22:07.351Z,99159.89
2017-12-31T13:24:34.852Z,99158.56
2017-12-31T13:27:02.861Z,99163.88
2017-12-31T13:29:31.207Z,99171.52
2017-12-31T13:31:58.663Z,99159.19
2017-12-31T13:34:26.724Z,99154.30
2017-12-31T13:36:57.733Z,99148.66
2017-12-31T13:39:24.917Z,99136.47
2017-12-31T13:41:52.821Z,99139.91
2017-12-31T13:44:20.572Z,99133.84
2017-12-31T13:46:47.588Z,99139.15
2017-12-31T13:49:15.304Z,99129.24
2017-12-31T13:51:42.658Z,99123.20
2017-12-31T13:54:11.550Z,99131.41
2017-12-31T13:56:46.378Z,99131.33
2017-12-31T13:59:20.629Z,99121.09
2017-12-31T14:01:47.917Z,99125.29
2017-12-31T14:04:15.443Z,99112.73
2017-12-31T14:06:47.887Z,99114.00
2017-12-31T14:09:21.044Z,99118.72
2017-12-31T14:11:47.876Z,99112.73
2017-12-31T14:14:15.746Z,99103.96
2017-12-31T14:16:42.729Z,99095.77
2017-12-31T14:19:09.851Z,99094.93
2017-12-31T14:21:39.057Z,99096.39
2017-12-31T14:24:09.484Z,99079.77
2017-12-31T14:26:36.636Z,99093.18
2017-12-31T14:29:03.472Z,99081.47
2017-12-31T14:31:30.265Z,99077.77
2017-12-31T14:34:02.199Z,99081.35
2017-12-31T14:36:29.412Z,99070.83
2017-12-31T14:38:56.594Z,99071.27
2017-12-31T14:41:24.815Z,99081.61
2017-12-31T14:43:52.877Z,99076.38
2017-12-31T14:46:19.637Z,99075.63
2017-12-31T14:48:49.628Z,99066.90
2017-12-31T14:51:17.261Z,99071.81
2017-12-31T14:53:45.207Z,99060.22
2017-12-31T14:56:12.080Z,99061.72
2017-12-31T14:58:38.962Z,99069.94
2017-12-31T15:01:12.914Z,99071.81
2017-12-31T15:03:45.160Z,99056.53
2017-12-31T15:06:13.290Z,99039.69
2017-12-31T15:08:42.083Z,99052.52
2017-12-31T15:11:09.853Z,99061.39
2017-12-31T15:13:37.203Z,99058.51
2017-12-31T15:16:12.421Z,99057.09
2017-12-31T15:18:39.307Z,99049.70
2017-12-31T15:21:07.926Z,99043.81
2017-12-31T15:23:35.230Z,99046.99
2017-12-31T15:26:02.504Z,99042.80
2017-12-31T15:28:29.524Z,99036.67
2017-12-31T15:30:56.826Z,99047.95
2017-12-31T15:33:29.148Z,99045.67
2017-12-31T15:35:57.082Z,99045.25
2017-12-31T15:38:26.998Z,99049.14
2017-12-31T15:40:59.462Z,99053.34
2017-12-31T15:43:37.243Z,99052.48
2017-12-31T15:46:04.980Z,99045.44
2017-12-31T15:48:37.200Z,99044.20
2017-12-31T15:51:07.282Z,99047.23
2017-12-31T15:53:34.137Z,99051.78
2017-12-31T15:56:06.638Z,99046.10
2017-12-31T15:58:33.745Z,99032.25
2017-12-31T16:01:00.641Z,99041.66
2017-12-31T16:03:28.554Z,99033.23
2017-12-31T16:05:57.009Z,99028.60
2017-12-31T16:08:24.449Z,99026.57
2017-12-31T16:10:51.862Z,99004.16
2017-12-31T16:13:24.928Z,99012.80
2017-12-31T16:15:58.098Z,99000.13
2017-12-31T16:18:25.085Z,98991.05
2017-12-31T16:20:52.564Z,98985.41
2017-12-31T16:23:25.039Z,98986.45
2017-12-31T16:25:53.116Z,98981.44
2017-12-31T16:28:27.297Z,98985.79
2017-12-31T16:31:00.840Z,98986.13
2017-12-31T16:33:33.489Z,98983.58
2017-12-31T16:36:06.852Z,98966.50
2017-12-31T16:38:37.036Z,98976.67
2017-12-31T16:41:09.744Z,98970.44
2017-12-31T16:43:38.554Z,98973.69
2017-12-31T16:46:08.537Z,98963.25
2017-12-31T16:48:41.798Z,98970.91
2017-12-31T16:51:09.020Z,98954.69
2017-12-31T16:53:41.757Z,98958.41
2017-12-31T16:56:14.392Z,98960.35
2017-12-31T16:58:42.191Z,98948.63
2017-12-31T17:01:10.168Z,98954.59
2017-12-31T17:03:38.257Z,98955.44
2017-12-31T17:06:05.827Z,98945.55
2017-12-31T17:08:38.224Z,98944.09
2017-12-31T17:11:05.508Z,98942.39
2017-12-31T17:13:32.846Z,98933.46
2017-12-31T17:16:05.673Z,98950.95
2017-12-31T17:18:33.534Z,98947.54
2017-12-31T17:21:01.758Z,98951.14
2017-12-31T17:23:29.075Z,98946.03
2017-12-31T17:26:02.497Z,98946.88
2017-12-31T17:28:31.199Z,98942.33
2017-12-31T17:30:58.226Z,98941.30
2017-12-31T17:33:30.730Z,98947.97
2017-12-31T17:35:58.126Z,98946.08
2017-12-31T17:38:25.390Z,98944.42
2017-12-31T17:41:03.927Z,98938.89
2017-12-31T17:43:41.766Z,98940.30
2017-12-31T17:46:12.779Z,98944.73
2017-12-31T17:48:40.175Z,98939.22
2017-12-31T17:51:12.644Z,98931.28
2017-12-31T17:53:43.418Z,98939.36
2017-12-31T17:56:19.331Z,98944.31
2017-12-31T17:58:47.496Z,98927.91
2017-12-31T18:01:16.445Z,98934.81
2017-12-31T18:03:43.769Z,98935.20
2017-12-31T18:06:10.653Z,98936.20
2017-12-31T18:08:37.455Z,98936.89
2017-12-31T18:11:08.244Z,98924.47
2017-12-31T18:13:35.166Z,98927.34
2017-12-31T18:16:03.572Z,98920.45
2017-12-31T18:18:35.671Z,98925.80
2017-12-31T18:21:03.600Z,98923.76
2017-12-31T18:23:35.798Z,98913.39
2017-12-31T18:26:05.737Z,98907.31
2017-12-31T18:28:33.891Z,98904.28
2017-12-31T18:31:07.074Z,98900.88
2017-12-31T18:33:36.128Z,98899.22
2017-12-31T18:36:07.973Z,98894.55
2017-12-31T18:38:36.095Z,98895.58
2017-12-31T18:41:03.622Z,98892.17
2017-12-31T18:43:31.542Z,98890.23
2017-12-31T18:46:04.570Z,98886.88
2017-12-31T18:48:32.746Z,98885.14
2017-12-31T18:50:59.996Z,98876.91
2017-12-31T18:53:32.415Z,98873.99
2017-12-31T18:56:00.340Z,98875.73
2017-12-31T18:58:28.570Z,98865.82
2017-12-31T19:01:00.626Z,98864.49
2017-12-31T19:03:28.623Z,98860.95
2017-12-31T19:05:56.769Z,98857.31
2017-12-31T19:08:29.140Z,98857.60
2017-12-31T19:10:58.998Z,98852.73
2017-12-31T19:13:28.367Z,98843.28
2017-12-31T19:15:57.050Z,98845.45
2017-12-31T19:18:24.182Z,98839.12
2017-12-31T19:20:52.136Z,98830.19
2017-12-31T19:23:26.536Z,98824.85
2017-12-31T19:25:54.440Z,98829.16
2017-12-31T19:28:26.458Z,98822.48
2017-12-31T19:31:05.663Z,98809.69
2017-12-31T19:33:33.605Z,98810.25
2017-12-31T19:36:01.046Z,98803.07
2017-12-31T19:38:28.332Z,98801.70
2017-12-31T19:40:57.554Z,98786.44
2017-12-31T19:43:25.284Z,98790.30
2017-12-31T19:45:52.253Z,98792.86
2017-12-31T19:48:25.768Z,98781.45
2017-12-31T19:50:55.275Z,98786.08
2017-12-31T19:53:24.415Z,98789.67
2017-12-31T19:55:51.770Z,98794.23
2017-12-31T19:58:24.847Z,98825.27
2017-12-31T20:00:51.877Z,98873.05
2017-12-31T20:03:30.911Z,98899.70
2017-12-31T20:05:58.194Z,98902.75
2017-12-31T20:08:26.302Z,98914.61
2017-12-31T20:11:00.338Z,98919.87
2017-12-31T20:13:27.732Z,98929.40
2017-12-31T20:15:55.170Z,98931.75
2017-12-31T20:18:27.574Z,98925.27
2017-12-31T20:20:55.915Z,98923.67
2017-12-31T20:23:23.676Z,98917.97
2017-12-31T20:25:52.949Z,98920.30
2017-12-31T20:28:26.334Z,98930.22
2017-12-31T20:30:55.270Z,98932.56
2017-12-31T20:33:27.857Z,98929.11
2017-12-31T20:35:56.052Z,98941.53
2017-12-31T20:38:23.450Z,98929.44
2017-12-31T20:40:50.612Z,98954.09
2017-12-31T20:43:23.795Z,98968.86
2017-12-31T20:45:55.331Z,98962.05
2017-12-31T20:48:25.795Z,98973.14
2017-12-31T20:50:52.784Z,98967.52
2017-12-31T20:53:20.941Z,98963.54
2017-12-31T20:55:48.086Z,98971.23
2017-12-31T20:58:15.817Z,98967.75
2017-12-31T21:00:44.921Z,98964.41
2017-12-31T21:21:12.391Z,98992.02
2017-12-31T21:23:39.450Z,98991.00
2017-12-31T21:26:07.593Z,98989.25
2017-12-31T21:28:40.167Z,98981.48
2017-12-31T21:31:07.602Z,98982.90
2017-12-31T21:33:36.159Z,98975.91
2017-12-31T21:36:03.528Z,98974.97
2017-12-31T21:38:36.874Z,98975.93
2017-12-31T21:41:04.171Z,98979.77
2017-12-31T21:43:31.971Z,98980.37
2017-12-31T21:45:59.829Z,98983.09
2017-12-31T21:48:27.632Z,98986.37
2017-12-31T21:50:55.334Z,98988.28
2017-12-31T21:53:25.515Z,98996.70
2017-12-31T21:55:52.464Z,98997.95
2017-12-31T21:58:19.899Z,98997.65
2017-12-31T22:22:04.696Z,99020.98
2017-12-31T22:24:49.824Z,99011.02
2017-12-31T22:29:55.777Z,99023.27
2017-12-31T22:32:24.352Z,99017.92
2017-12-31T22:34:51.974Z,99024.05
2017-12-31T22:37:25.996Z,99011.39
2017-12-31T22:39:53.978Z,99023.87
2017-12-31T22:42:22.109Z,99028.17
2017-12-31T22:44:49.322Z,99042.77
2017-12-31T22:47:19.142Z,99037.78
2017-12-31T22:49:47.051Z,99034.64
2017-12-31T22:52:18.862Z,99046.28
2017-12-31T22:54:47.567Z,99059.59
2017-12-31T22:57:14.880Z,99083.81
2017-12-31T22:59:42.202Z,99075.82
2017-12-31T23:02:15.552Z,99084.61
2017-12-31T23:04:51.190Z,99085.66
2017-12-31T23:07:29.950Z,99103.27
2017-12-31T23:09:59.120Z,99093.89
2017-12-31T23:12:27.294Z,99103.26
2017-12-31T23:14:57.545Z,99107.03
2017-12-31T23:17:27.278Z,99107.23
2017-12-31T23:38:40.303Z,99098.38
2017-12-31T23:41:13.818Z,99097.56
2017-12-31T23:43:53.124Z,99096.80
2017-12-31T23:46:25.531Z,99106.38
2017-12-31T23:48:54.684Z,99096.41
2017-12-31T23:51:22.802Z,99086.09
2017-12-31T23:53:51.874Z,99084.73
2017-12-31T23:56:23.757Z,99086.77
2017-12-31T23:58:52.336Z,99089.13
